Time;durP1;ratioP1;P1;durP2;ratioP2;P2;SDS_P1;SDS_P2;PMS_P1;PMS_P2;Temp;Humidity;BMP_temperature;BMP_pressure;BME280_temperature;BME280_humidity;BME280_pressure;Samples;Min_cycle;Max_cycle;Signal;HPM_P1;HPM_P2
2023/11/22 00:01:51;;;;;;;14.43;10.10;;;;;;;;;;5095450;28;20161;-57
2023/11/22 00:04:20;;;;;;;13.68;8.68;;;;;;;;;;5094143;28;20040;-57
2023/11/22 00:06:47;;;;;;;13.90;8.77;;;;;;;;;;5107884;28;20050;-57
2023/11/22 00:09:14;;;;;;;14.73;9.25;;;;;;;;;;5100645;28;20062;-57
2023/11/22 00:11:40;;;;;;;17.70;9.07;;;;;;;;;;5103400;28;20035;-57
2023/11/22 00:14:06;;;;;;;14.82;9.35;;;;;;;;;;5105052;28;20124;-57
2023/11/22 00:16:34;;;;;;;13.00;8.63;;;;;;;;;;5104831;28;20043;-57
2023/11/22 00:19:00;;;;;;;17.05;9.00;;;;;;;;;;5104130;28;20123;-58
2023/11/22 00:21:26;;;;;;;11.90;7.90;;;;;;;;;;5090331;28;20056;-58
2023/11/22 00:23:52;;;;;;;13.77;8.90;;;;;;;;;;5102823;28;20044;-57
2023/11/22 00:26:19;;;;;;;13.13;8.27;;;;;;;;;;5093616;28;20040;-57
2023/11/22 00:28:45;;;;;;;14.15;8.60;;;;;;;;;;5092371;28;20071;-57
2023/11/22 00:31:14;;;;;;;23.15;8.57;;;;;;;;;;5108318;28;20051;-57
2023/11/22 00:33:40;;;;;;;14.27;8.38;;;;;;;;;;5099778;28;20043;-57
2023/11/22 00:36:08;;;;;;;10.90;7.30;;;;;;;;;;5102836;28;20040;-57
2023/11/22 00:38:36;;;;;;;17.05;7.97;;;;;;;;;;5101519;28;20811;-57
2023/11/22 00:41:02;;;;;;;12.10;8.00;;;;;;;;;;5093387;28;20051;-57
2023/11/22 00:43:28;;;;;;;13.90;8.13;;;;;;;;;;5094617;28;20083;-57
2023/11/22 00:45:55;;;;;;;13.77;8.27;;;;;;;;;;5098485;28;20043;-57
2023/11/22 00:48:21;;;;;;;11.27;8.00;;;;;;;;;;5104742;28;20598;-57
2023/11/22 00:50:47;;;;;;;13.38;8.32;;;;;;;;;;5094291;28;20118;-57
2023/11/22 00:53:14;;;;;;;16.42;8.35;;;;;;;;;;5107611;28;20062;-57
2023/11/22 00:55:42;;;;;;;12.60;7.60;;;;;;;;;;5090038;28;20046;-57
2023/11/22 00:58:08;;;;;;;13.38;7.82;;;;;;;;;;5092308;28;20048;-57
2023/11/22 01:00:34;;;;;;;10.27;7.15;;;;;;;;;;5106285;28;20032;-57
2023/11/22 01:03:00;;;;;;;14.10;7.82;;;;;;;;;;5083464;28;20074;-57
2023/11/22 01:05:26;;;;;;;12.35;7.85;;;;;;;;;;5108446;28;20091;-57
2023/11/22 01:07:53;;;;;;;12.30;6.95;;;;;;;;;;5102841;28;20157;-57
2023/11/22 01:10:19;;;;;;;12.85;7.32;;;;;;;;;;5099514;28;20119;-57
2023/11/22 01:12:45;;;;;;;14.15;8.35;;;;;;;;;;5110887;28;20027;-57
2023/11/22 01:15:11;;;;;;;12.82;8.18;;;;;;;;;;5105741;28;20040;-57
2023/11/22 01:17:37;;;;;;;13.15;7.05;;;;;;;;;;5107004;28;20100;-57
2023/11/22 01:20:04;;;;;;;12.45;7.63;;;;;;;;;;5102911;28;20050;-57
2023/11/22 01:22:30;;;;;;;15.52;7.70;;;;;;;;;;5106921;28;20392;-57
2023/11/22 01:24:57;;;;;;;11.75;7.53;;;;;;;;;;5095630;28;20135;-57
2023/11/22 01:27:24;;;;;;;11.88;7.60;;;;;;;;;;5096206;28;20111;-57
2023/11/22 01:29:50;;;;;;;14.57;6.95;;;;;;;;;;5102165;28;20415;-57
2023/11/22 01:32:17;;;;;;;15.73;8.27;;;;;;;;;;5101379;28;20051;-57
2023/11/22 01:34:43;;;;;;;14.13;7.63;;;;;;;;;;5098022;28;20104;-57
2023/11/22 01:37:09;;;;;;;13.35;7.90;;;;;;;;;;5107563;28;20050;-57
2023/11/22 01:39:35;;;;;;;15.65;9.40;;;;;;;;;;5107266;28;20395;-57
2023/11/22 01:42:01;;;;;;;14.95;8.70;;;;;;;;;;5094050;28;20082;-57
2023/11/22 01:44:28;;;;;;;19.98;9.50;;;;;;;;;;5092893;28;20122;-57
2023/11/22 01:46:54;;;;;;;15.50;9.05;;;;;;;;;;5103196;28;20119;-57
2023/11/22 01:49:21;;;;;;;15.15;9.18;;;;;;;;;;5104725;28;20059;-57
2023/11/22 01:51:48;;;;;;;19.17;9.85;;;;;;;;;;5102211;28;20145;-57
2023/11/22 01:54:15;;;;;;;15.38;9.35;;;;;;;;;;5105817;28;20138;-57
2023/11/22 01:56:41;;;;;;;17.83;9.73;;;;;;;;;;5101094;28;20503;-58
2023/11/22 01:59:08;;;;;;;17.52;10.50;;;;;;;;;;5095507;28;20051;-57
2023/11/22 02:01:34;;;;;;;16.35;10.10;;;;;;;;;;5102343;28;20092;-57
2023/11/22 02:04:00;;;;;;;17.20;9.95;;;;;;;;;;5101714;28;20091;-57
2023/11/22 02:06:27;;;;;;;15.10;10.35;;;;;;;;;;5094812;28;20036;-57
2023/11/22 02:08:53;;;;;;;18.35;10.55;;;;;;;;;;5103556;28;20070;-57
2023/11/22 02:11:24;;;;;;;18.98;11.00;;;;;;;;;;5101794;28;20122;-57
2023/11/22 02:13:50;;;;;;;16.77;9.20;;;;;;;;;;5100038;28;20105;-57
2023/11/22 02:16:17;;;;;;;17.10;11.02;;;;;;;;;;5092810;28;20389;-57
2023/11/22 02:18:47;;;;;;;18.00;11.45;;;;;;;;;;5077504;28;20486;-57
2023/11/22 02:21:14;;;;;;;20.10;11.07;;;;;;;;;;5097957;28;20088;-57
2023/11/22 02:23:42;;;;;;;19.67;10.98;;;;;;;;;;5095880;28;20055;-57
2023/11/22 02:26:08;;;;;;;18.95;10.20;;;;;;;;;;5093373;28;20460;-57
2023/11/22 02:28:34;;;;;;;15.15;10.57;;;;;;;;;;5095047;28;20146;-57
2023/11/22 02:31:00;;;;;;;20.15;10.65;;;;;;;;;;5101301;28;20043;-57
2023/11/22 02:33:27;;;;;;;17.30;10.77;;;;;;;;;;5095049;28;20102;-57
2023/11/22 02:35:54;;;;;;;14.90;10.07;;;;;;;;;;5103573;28;20043;-57
2023/11/22 02:38:20;;;;;;;18.75;10.63;;;;;;;;;;5080734;28;20079;-57
2023/11/22 02:40:47;;;;;;;19.63;11.13;;;;;;;;;;5100603;28;20048;-57
2023/11/22 02:43:13;;;;;;;18.35;11.15;;;;;;;;;;5096165;28;20542;-57
2023/11/22 02:45:39;;;;;;;17.48;11.63;;;;;;;;;;5096339;28;20032;-57
2023/11/22 02:48:09;;;;;;;16.65;10.75;;;;;;;;;;5102827;28;20036;-57
2023/11/22 02:50:36;;;;;;;17.40;10.43;;;;;;;;;;5107177;28;20436;-57
2023/11/22 02:53:03;;;;;;;21.27;10.48;;;;;;;;;;5104795;28;20043;-57
2023/11/22 02:55:30;;;;;;;19.10;10.65;;;;;;;;;;5085619;28;20119;-57
2023/11/22 02:57:56;;;;;;;20.33;10.95;;;;;;;;;;5095658;28;20123;-57
2023/11/22 03:00:24;;;;;;;19.35;10.57;;;;;;;;;;5102643;28;20065;-57
2023/11/22 03:02:53;;;;;;;16.88;10.80;;;;;;;;;;5104864;28;20411;-57
2023/11/22 03:05:20;;;;;;;17.35;10.60;;;;;;;;;;5097026;28;20398;-58
2023/11/22 03:07:47;;;;;;;19.15;9.98;;;;;;;;;;5088367;28;20040;-57
2023/11/22 03:10:13;;;;;;;22.48;12.50;;;;;;;;;;5097232;28;20403;-57
2023/11/22 03:12:39;;;;;;;19.92;10.93;;;;;;;;;;5099956;28;20039;-57
2023/11/22 03:15:06;;;;;;;19.63;11.18;;;;;;;;;;5106874;28;20456;-57
2023/11/22 03:17:35;;;;;;;20.45;10.75;;;;;;;;;;5088293;28;20468;-57
2023/11/22 03:20:01;;;;;;;22.35;10.20;;;;;;;;;;5094005;28;20130;-57
2023/11/22 03:22:31;;;;;;;17.17;10.30;;;;;;;;;;5097101;28;20042;-57
2023/11/22 03:24:58;;;;;;;18.48;9.70;;;;;;;;;;5103884;28;20513;-57
2023/11/22 03:27:25;;;;;;;17.55;10.63;;;;;;;;;;5102572;28;20191;-57
2023/11/22 03:29:51;;;;;;;17.45;9.57;;;;;;;;;;5075717;28;21259;-57
2023/11/22 03:32:17;;;;;;;18.05;9.52;;;;;;;;;;5099732;28;20048;-57
2023/11/22 03:34:43;;;;;;;15.45;9.73;;;;;;;;;;5095484;28;20071;-57
2023/11/22 03:37:10;;;;;;;19.50;9.80;;;;;;;;;;5091692;28;20407;-57
2023/11/22 03:39:37;;;;;;;20.15;10.10;;;;;;;;;;5100999;28;20836;-57
2023/11/22 03:42:04;;;;;;;13.93;8.98;;;;;;;;;;5098367;28;20043;-57
2023/11/22 03:44:30;;;;;;;15.75;9.23;;;;;;;;;;5108512;28;20075;-57
2023/11/22 03:46:56;;;;;;;14.23;8.60;;;;;;;;;;5112106;28;20391;-57
2023/11/22 03:49:22;;;;;;;15.63;9.23;;;;;;;;;;5098392;28;20047;-57
2023/11/22 03:51:50;;;;;;;18.58;9.23;;;;;;;;;;5105787;28;20074;-57
2023/11/22 03:54:16;;;;;;;17.60;9.90;;;;;;;;;;5100901;28;20487;-57
2023/11/22 03:56:42;;;;;;;15.75;9.07;;;;;;;;;;5109275;28;20365;-57
2023/11/22 03:59:08;;;;;;;16.35;9.75;;;;;;;;;;5108101;28;20051;-57
2023/11/22 04:01:34;;;;;;;15.75;10.40;;;;;;;;;;5103404;28;20059;-57
2023/11/22 04:04:00;;;;;;;17.92;10.23;;;;;;;;;;5094076;28;20068;-57
2023/11/22 04:06:27;;;;;;;21.63;10.10;;;;;;;;;;5093188;28;20483;-57
2023/11/22 04:08:53;;;;;;;18.10;10.70;;;;;;;;;;5091594;28;20043;-57
2023/11/22 04:11:21;;;;;;;21.63;10.40;;;;;;;;;;5109858;28;20083;-57
2023/11/22 04:13:47;;;;;;;18.92;9.43;;;;;;;;;;5100127;28;20101;-57
2023/11/22 04:16:14;;;;;;;18.45;10.10;;;;;;;;;;5101979;28;20035;-57
2023/11/22 04:18:41;;;;;;;18.25;9.13;;;;;;;;;;5111553;28;20535;-57
2023/11/22 04:21:07;;;;;;;17.42;9.45;;;;;;;;;;5103082;28;20072;-57
2023/11/22 04:23:33;;;;;;;15.93;8.82;;;;;;;;;;5107495;28;20051;-57
2023/11/22 04:26:00;;;;;;;14.13;8.43;;;;;;;;;;5108783;28;20184;-57
2023/11/22 04:28:27;;;;;;;12.10;6.97;;;;;;;;;;5098324;28;20052;-57
2023/11/22 04:30:53;;;;;;;16.25;7.90;;;;;;;;;;5104466;28;20620;-57
2023/11/22 04:33:20;;;;;;;12.60;7.47;;;;;;;;;;5108645;28;20071;-57
2023/11/22 04:35:46;;;;;;;15.55;9.07;;;;;;;;;;5099534;28;20051;-57
2023/11/22 04:38:12;;;;;;;17.95;9.35;;;;;;;;;;5096078;28;20040;-58
2023/11/22 04:40:38;;;;;;;20.80;9.57;;;;;;;;;;5107343;28;20044;-58
2023/11/22 04:43:05;;;;;;;15.85;8.70;;;;;;;;;;5108082;28;20055;-57
2023/11/22 04:45:31;;;;;;;17.55;8.52;;;;;;;;;;5111618;28;20556;-57
2023/11/22 04:47:57;;;;;;;14.82;7.90;;;;;;;;;;5107888;28;20127;-58
2023/11/22 04:50:26;;;;;;;17.30;8.95;;;;;;;;;;5102240;28;20344;-57
2023/11/22 04:52:53;;;;;;;18.70;8.73;;;;;;;;;;5105677;28;20055;-57
2023/11/22 04:55:19;;;;;;;17.30;9.82;;;;;;;;;;5099310;28;20059;-57
2023/11/22 04:57:48;;;;;;;17.52;9.50;;;;;;;;;;5095192;28;20073;-57
2023/11/22 05:00:14;;;;;;;20.73;10.18;;;;;;;;;;5089215;28;20425;-57
2023/11/22 05:02:40;;;;;;;24.45;12.05;;;;;;;;;;5058464;28;20539;-57
2023/11/22 05:05:10;;;;;;;19.85;10.55;;;;;;;;;;5108272;28;20079;-57
2023/11/22 05:07:36;;;;;;;18.08;10.90;;;;;;;;;;5111427;28;20036;-57
2023/11/22 05:10:03;;;;;;;20.10;10.15;;;;;;;;;;5102622;28;20055;-57
2023/11/22 05:12:29;;;;;;;20.17;10.25;;;;;;;;;;5109321;28;20032;-57
2023/11/22 05:14:55;;;;;;;22.00;10.38;;;;;;;;;;5109698;28;20544;-57
2023/11/22 05:17:21;;;;;;;24.95;11.77;;;;;;;;;;5091860;28;20040;-57
2023/11/22 05:19:47;;;;;;;21.20;10.18;;;;;;;;;;5109070;28;20395;-57
2023/11/22 05:22:14;;;;;;;20.05;10.63;;;;;;;;;;5098205;28;20040;-57
2023/11/22 05:24:41;;;;;;;18.85;10.25;;;;;;;;;;5099490;28;20047;-57
2023/11/22 05:27:09;;;;;;;22.25;10.13;;;;;;;;;;5104014;28;20063;-57
2023/11/22 05:29:36;;;;;;;19.65;10.68;;;;;;;;;;5104342;28;20459;-57
2023/11/22 05:32:02;;;;;;;19.92;11.30;;;;;;;;;;5099908;28;20128;-57
2023/11/22 05:34:29;;;;;;;20.38;11.23;;;;;;;;;;5099654;28;20061;-57
2023/11/22 05:36:55;;;;;;;28.83;13.65;;;;;;;;;;5089972;28;20630;-57
2023/11/22 05:39:24;;;;;;;19.23;11.13;;;;;;;;;;5094559;28;20108;-57
2023/11/22 05:41:51;;;;;;;20.23;11.43;;;;;;;;;;5089800;28;20048;-57
2023/11/22 05:44:17;;;;;;;24.60;12.15;;;;;;;;;;5104650;28;20040;-57
2023/11/22 05:46:44;;;;;;;25.08;12.63;;;;;;;;;;5104700;28;20071;-57
2023/11/22 05:49:10;;;;;;;24.13;12.57;;;;;;;;;;5104011;28;20044;-57
2023/11/22 05:51:40;;;;;;;22.52;12.57;;;;;;;;;;5104597;28;20455;-57
2023/11/22 05:54:07;;;;;;;22.42;11.88;;;;;;;;;;5095247;28;20044;-57
2023/11/22 05:56:33;;;;;;;23.58;12.70;;;;;;;;;;5111226;28;20137;-57
2023/11/22 05:58:59;;;;;;;28.20;12.75;;;;;;;;;;5098854;28;20040;-57
2023/11/22 06:01:30;;;;;;;24.27;13.60;;;;;;;;;;5108979;28;20054;-57
2023/11/22 06:03:56;;;;;;;25.40;13.13;;;;;;;;;;5105109;28;20415;-57
2023/11/22 06:06:23;;;;;;;24.35;12.90;;;;;;;;;;5111100;28;20365;-57
2023/11/22 06:08:49;;;;;;;29.05;14.68;;;;;;;;;;5111282;28;20040;-57
2023/11/22 06:11:15;;;;;;;30.33;14.52;;;;;;;;;;5110276;28;20100;-57
2023/11/22 06:13:48;;;;;;;29.45;13.77;;;;;;;;;;5106430;28;20066;-57
2023/11/22 06:16:14;;;;;;;26.27;13.55;;;;;;;;;;5099487;28;20035;-57
2023/11/22 06:18:40;;;;;;;25.58;13.23;;;;;;;;;;5100568;28;20050;-57
2023/11/22 06:21:08;;;;;;;22.73;12.30;;;;;;;;;;5101569;28;20053;-57
2023/11/22 06:23:34;;;;;;;27.88;14.13;;;;;;;;;;5101517;28;20036;-56
2023/11/22 06:26:00;;;;;;;26.63;13.85;;;;;;;;;;5097524;28;20473;-57
2023/11/22 06:28:26;;;;;;;24.60;13.27;;;;;;;;;;5106281;28;20150;-58
2023/11/22 06:30:53;;;;;;;29.67;14.30;;;;;;;;;;5107471;28;20119;-57
2023/11/22 06:33:19;;;;;;;32.40;15.52;;;;;;;;;;5092863;28;20459;-58
2023/11/22 06:35:45;;;;;;;27.92;13.80;;;;;;;;;;5090475;28;20093;-58
2023/11/22 06:38:12;;;;;;;29.02;14.07;;;;;;;;;;5090815;28;20469;-57
2023/11/22 06:40:38;;;;;;;29.85;13.90;;;;;;;;;;5089673;28;20079;-57
2023/11/22 06:43:05;;;;;;;29.85;14.82;;;;;;;;;;5089981;28;20048;-57
2023/11/22 06:45:31;;;;;;;30.27;15.30;;;;;;;;;;5093106;28;20123;-57
2023/11/22 06:47:58;;;;;;;31.60;15.60;;;;;;;;;;5102147;28;20051;-57
2023/11/22 06:50:24;;;;;;;29.33;15.10;;;;;;;;;;5090759;28;20475;-57
2023/11/22 06:52:52;;;;;;;29.02;14.02;;;;;;;;;;5090300;28;20545;-57
2023/11/22 06:55:18;;;;;;;30.90;15.02;;;;;;;;;;5093885;28;20039;-57
2023/11/22 06:57:45;;;;;;;34.50;16.33;;;;;;;;;;5111067;28;20067;-57
2023/11/22 07:00:12;;;;;;;31.75;15.57;;;;;;;;;;5106907;28;20425;-57
2023/11/22 07:02:38;;;;;;;30.98;15.07;;;;;;;;;;5099184;28;20474;-57
2023/11/22 07:05:08;;;;;;;28.10;14.95;;;;;;;;;;5110897;28;20426;-58
2023/11/22 07:07:38;;;;;;;33.30;15.65;;;;;;;;;;5109109;28;20074;-57
2023/11/22 07:10:05;;;;;;;31.27;16.15;;;;;;;;;;5110701;28;20051;-57
2023/11/22 07:12:34;;;;;;;30.60;15.98;;;;;;;;;;5089088;28;20046;-57
2023/11/22 07:15:01;;;;;;;31.15;15.27;;;;;;;;;;5106315;28;20050;-57
2023/11/22 07:17:30;;;;;;;30.40;14.85;;;;;;;;;;5113334;28;20043;-57
2023/11/22 07:19:57;;;;;;;31.60;16.52;;;;;;;;;;5114497;28;20084;-57
2023/11/22 07:22:24;;;;;;;38.58;16.58;;;;;;;;;;5113665;28;20036;-57
2023/11/22 07:24:51;;;;;;;35.33;17.00;;;;;;;;;;5113376;28;20042;-57
2023/11/22 07:27:18;;;;;;;34.35;16.75;;;;;;;;;;5103674;28;20063;-57
2023/11/22 07:29:45;;;;;;;36.03;18.02;;;;;;;;;;5111536;28;20066;-57
2023/11/22 07:32:12;;;;;;;40.45;16.25;;;;;;;;;;5113033;28;20039;-58
2023/11/22 07:34:42;;;;;;;33.65;15.63;;;;;;;;;;5110197;28;20038;-58
2023/11/22 07:37:09;;;;;;;33.47;16.48;;;;;;;;;;5108881;28;20217;-58
2023/11/22 07:39:39;;;;;;;35.92;16.58;;;;;;;;;;5113391;28;20031;-58
2023/11/22 07:42:08;;;;;;;33.05;15.98;;;;;;;;;;5114144;28;20348;-59
2023/11/22 07:44:37;;;;;;;32.47;16.00;;;;;;;;;;5113362;28;20050;-58
2023/11/22 07:47:07;;;;;;;35.08;17.02;;;;;;;;;;5112799;28;20522;-58
2023/11/22 07:49:37;;;;;;;33.05;16.73;;;;;;;;;;5111738;28;20412;-58
2023/11/22 07:52:04;;;;;;;34.90;16.67;;;;;;;;;;5108650;27;20471;-59
2023/11/22 07:54:31;;;;;;;37.53;16.98;;;;;;;;;;5105152;28;20044;-59
2023/11/22 07:56:57;;;;;;;37.63;15.88;;;;;;;;;;5104809;27;20044;-59
2023/11/22 07:59:23;;;;;;;35.22;16.33;;;;;;;;;;5100722;28;20123;-59
2023/11/22 08:01:49;;;;;;;34.22;18.25;;;;;;;;;;5080961;28;20139;-59
2023/11/22 08:04:18;;;;;;;36.40;17.27;;;;;;;;;;5101455;27;20527;-59
2023/11/22 08:06:45;;;;;;;37.13;17.58;;;;;;;;;;5104373;28;20048;-59
2023/11/22 08:09:11;;;;;;;40.85;18.25;;;;;;;;;;5087139;28;20096;-59
2023/11/22 08:11:38;;;;;;;36.13;17.15;;;;;;;;;;5097497;28;20061;-58
2023/11/22 08:14:05;;;;;;;42.00;19.85;;;;;;;;;;5093662;28;20048;-59
2023/11/22 08:16:32;;;;;;;35.78;17.92;;;;;;;;;;5093149;28;20052;-59
2023/11/22 08:18:58;;;;;;;36.30;17.95;;;;;;;;;;5094129;28;20496;-59
2023/11/22 08:21:24;;;;;;;36.20;17.10;;;;;;;;;;5092365;28;20062;-59
2023/11/22 08:23:53;;;;;;;41.28;17.98;;;;;;;;;;5096000;28;20131;-59
2023/11/22 08:26:19;;;;;;;35.40;16.95;;;;;;;;;;5092149;28;20048;-59
2023/11/22 08:28:45;;;;;;;37.60;16.60;;;;;;;;;;5097410;28;20091;-59
2023/11/22 08:31:11;;;;;;;39.20;18.70;;;;;;;;;;5092971;28;20066;-59
2023/11/22 08:33:38;;;;;;;35.92;17.67;;;;;;;;;;5091649;28;20096;-59
2023/11/22 08:36:06;;;;;;;37.88;17.25;;;;;;;;;;5092691;28;20048;-59
2023/11/22 08:38:33;;;;;;;36.75;17.95;;;;;;;;;;5092598;28;20051;-59
2023/11/22 08:41:02;;;;;;;36.25;17.52;;;;;;;;;;5103896;28;20074;-59
2023/11/22 08:43:29;;;;;;;40.45;19.70;;;;;;;;;;5101776;28;20040;-59
2023/11/22 08:45:55;;;;;;;37.95;16.88;;;;;;;;;;5074197;28;20525;-59
2023/11/22 08:48:21;;;;;;;35.75;18.08;;;;;;;;;;5091566;28;20039;-59
2023/11/22 08:50:48;;;;;;;36.83;18.15;;;;;;;;;;5099667;28;20043;-59
2023/11/22 08:53:15;;;;;;;37.13;17.52;;;;;;;;;;5092572;28;20036;-59
2023/11/22 08:55:43;;;;;;;36.30;17.98;;;;;;;;;;5108437;28;20035;-60
2023/11/22 08:58:10;;;;;;;35.13;18.50;;;;;;;;;;5112063;28;20355;-60
2023/11/22 09:00:37;;;;;;;39.08;19.83;;;;;;;;;;5100384;28;20040;-59
2023/11/22 09:03:03;;;;;;;45.70;20.58;;;;;;;;;;5107890;28;20039;-59
2023/11/22 09:05:29;;;;;;;36.78;17.58;;;;;;;;;;5098250;27;20035;-59
2023/11/22 09:07:56;;;;;;;39.53;19.92;;;;;;;;;;5098309;28;20061;-59
2023/11/22 09:10:22;;;;;;;35.75;18.65;;;;;;;;;;5100388;28;20071;-59
2023/11/22 09:12:49;;;;;;;32.97;17.98;;;;;;;;;;5099475;28;20115;-59
2023/11/22 09:15:17;;;;;;;35.78;18.42;;;;;;;;;;5105463;28;20043;-59
2023/11/22 09:17:44;;;;;;;36.45;18.63;;;;;;;;;;5094543;28;20052;-59
2023/11/22 09:20:14;;;;;;;38.92;18.88;;;;;;;;;;5091147;28;20519;-59
2023/11/22 09:22:47;;;;;;;32.55;17.77;;;;;;;;;;5090953;28;20067;-59
2023/11/22 09:25:24;;;;;;;35.05;19.48;;;;;;;;;;5091363;28;20093;-59
2023/11/22 09:27:58;;;;;;;37.35;18.83;;;;;;;;;;5104781;28;20403;-60
2023/11/22 09:30:34;;;;;;;35.28;18.35;;;;;;;;;;5103203;28;20479;-59
2023/11/22 09:33:01;;;;;;;36.83;18.52;;;;;;;;;;5093706;28;20415;-60
2023/11/22 09:35:35;;;;;;;36.03;19.35;;;;;;;;;;5100003;28;20100;-59
2023/11/22 09:38:01;;;;;;;37.60;18.70;;;;;;;;;;5073148;28;20114;-59
2023/11/22 09:40:28;;;;;;;35.38;18.77;;;;;;;;;;5094111;28;20048;-59
2023/11/22 09:42:57;;;;;;;32.88;19.08;;;;;;;;;;5090883;28;20463;-59
2023/11/22 09:45:25;;;;;;;30.70;17.92;;;;;;;;;;5106701;28;20114;-59
2023/11/22 09:47:51;;;;;;;36.35;18.02;;;;;;;;;;5105327;28;20040;-59
2023/11/22 09:50:22;;;;;;;33.78;18.45;;;;;;;;;;5090726;28;20404;-59
2023/11/22 09:52:54;;;;;;;34.33;19.55;;;;;;;;;;5081117;28;20043;-59
2023/11/22 09:55:22;;;;;;;37.03;17.40;;;;;;;;;;5096475;28;20082;-60
2023/11/22 09:57:49;;;;;;;37.28;18.08;;;;;;;;;;5107670;28;20035;-59
2023/11/22 10:00:18;;;;;;;35.80;19.23;;;;;;;;;;5105944;28;20054;-59
2023/11/22 10:02:45;;;;;;;35.03;18.25;;;;;;;;;;5111498;28;20057;-59
2023/11/22 10:05:11;;;;;;;35.10;17.02;;;;;;;;;;5110502;28;20043;-59
2023/11/22 10:07:38;;;;;;;33.95;17.75;;;;;;;;;;5093088;28;20040;-59
2023/11/22 10:10:05;;;;;;;30.42;17.27;;;;;;;;;;5111238;28;20067;-59
2023/11/22 10:12:32;;;;;;;27.52;15.98;;;;;;;;;;5109843;28;20201;-59
2023/11/22 10:15:14;;;;;;;31.58;16.50;;;;;;;;;;5102410;28;20040;-59
2023/11/22 10:17:40;;;;;;;28.80;17.60;;;;;;;;;;5097897;28;20036;-59
2023/11/22 10:20:11;;;;;;;30.60;18.30;;;;;;;;;;5085927;28;20044;-59
2023/11/22 10:22:47;;;;;;;29.67;17.33;;;;;;;;;;5111024;28;20082;-59
2023/11/22 10:25:18;;;;;;;34.95;18.40;;;;;;;;;;5109605;28;20088;-59
2023/11/22 10:27:45;;;;;;;31.02;16.88;;;;;;;;;;5110921;28;20131;-59
2023/11/22 10:30:12;;;;;;;30.80;18.05;;;;;;;;;;5110924;28;20181;-59
2023/11/22 10:32:38;;;;;;;31.02;18.95;;;;;;;;;;5110479;28;20047;-59
2023/11/22 10:35:07;;;;;;;29.00;17.17;;;;;;;;;;5097354;28;20154;-59
2023/11/22 10:37:34;;;;;;;30.33;17.58;;;;;;;;;;5090864;28;20046;-60
2023/11/22 10:40:00;;;;;;;25.65;15.95;;;;;;;;;;5072542;28;20123;-61
2023/11/22 10:42:27;;;;;;;28.33;15.27;;;;;;;;;;5095772;28;20036;-60
2023/11/22 10:44:57;;;;;;;25.30;14.95;;;;;;;;;;5101800;28;20123;-60
2023/11/22 10:47:24;;;;;;;29.40;15.35;;;;;;;;;;5097299;28;20112;-60
2023/11/22 10:49:51;;;;;;;26.67;14.85;;;;;;;;;;5103402;28;20058;-60
2023/11/22 10:52:17;;;;;;;28.58;15.50;;;;;;;;;;5095470;28;20040;-60
2023/11/22 10:54:45;;;;;;;25.98;14.88;;;;;;;;;;5093741;28;20097;-60
2023/11/22 10:57:12;;;;;;;21.55;13.85;;;;;;;;;;5101311;28;20410;-60
2023/11/22 10:59:43;;;;;;;27.38;14.98;;;;;;;;;;5115295;28;20359;-60
2023/11/22 11:02:17;;;;;;;24.60;15.25;;;;;;;;;;5108007;28;20505;-60
2023/11/22 11:04:59;;;;;;;25.42;14.88;;;;;;;;;;5112237;28;20451;-60
2023/11/22 11:07:28;;;;;;;20.38;12.98;;;;;;;;;;5113199;28;20100;-60
2023/11/22 11:09:54;;;;;;;20.48;12.65;;;;;;;;;;5112324;28;20043;-60
2023/11/22 11:12:21;;;;;;;20.85;13.23;;;;;;;;;;5109968;28;20036;-60
2023/11/22 11:14:47;;;;;;;23.67;13.00;;;;;;;;;;5113964;28;20119;-60
2023/11/22 11:17:14;;;;;;;23.58;11.88;;;;;;;;;;5108605;28;20526;-61
2023/11/22 11:19:41;;;;;;;18.75;12.00;;;;;;;;;;5112708;28;20031;-61
2023/11/22 11:22:11;;;;;;;19.65;12.07;;;;;;;;;;5081710;28;20052;-60
2023/11/22 11:24:44;;;;;;;21.65;13.07;;;;;;;;;;5103718;28;20058;-60
2023/11/22 11:27:11;;;;;;;22.27;13.15;;;;;;;;;;5101873;28;20159;-60
2023/11/22 11:29:40;;;;;;;21.33;12.65;;;;;;;;;;5103257;28;20353;-60
2023/11/22 11:32:16;;;;;;;20.85;12.65;;;;;;;;;;5110026;27;20062;-60
2023/11/22 11:34:52;;;;;;;18.88;12.40;;;;;;;;;;5107552;28;20415;-61
2023/11/22 11:37:21;;;;;;;22.23;11.90;;;;;;;;;;5098983;28;20494;-60
2023/11/22 11:39:47;;;;;;;19.65;12.50;;;;;;;;;;5095527;28;20044;-61
2023/11/22 11:42:14;;;;;;;18.65;10.93;;;;;;;;;;5104009;28;20147;-61
2023/11/22 11:45:04;;;;;;;18.13;11.48;;;;;;;;;;5095687;28;20048;-61
2023/11/22 11:47:31;;;;;;;18.38;11.35;;;;;;;;;;5093207;28;20052;-61
2023/11/22 11:49:57;;;;;;;20.00;12.05;;;;;;;;;;5095586;28;20406;-61
2023/11/22 11:52:25;;;;;;;17.60;10.73;;;;;;;;;;5102349;28;20067;-61
2023/11/22 11:54:51;;;;;;;18.85;11.23;;;;;;;;;;5108667;28;20581;-61
2023/11/22 11:57:17;;;;;;;17.52;10.88;;;;;;;;;;5104812;28;20069;-61
2023/11/22 11:59:46;;;;;;;18.95;11.73;;;;;;;;;;5100452;28;20032;-61
2023/11/22 12:02:12;;;;;;;18.90;11.50;;;;;;;;;;5082994;28;20456;-61
2023/11/22 12:04:39;;;;;;;18.30;11.30;;;;;;;;;;5113472;28;20427;-61
2023/11/22 12:07:08;;;;;;;18.17;11.80;;;;;;;;;;5111738;28;20043;-61
2023/11/22 12:09:35;;;;;;;17.58;11.27;;;;;;;;;;5113569;28;20404;-61
2023/11/22 12:12:03;;;;;;;18.80;12.00;;;;;;;;;;5113028;28;20043;-61
2023/11/22 12:14:29;;;;;;;18.15;11.85;;;;;;;;;;5106601;28;20058;-61
2023/11/22 12:16:55;;;;;;;20.10;12.40;;;;;;;;;;5113544;28;20047;-61
2023/11/22 12:19:26;;;;;;;19.52;11.48;;;;;;;;;;5111881;28;20451;-61
2023/11/22 12:21:53;;;;;;;18.42;11.38;;;;;;;;;;5110550;28;20100;-70
2023/11/22 12:24:19;;;;;;;19.70;11.73;;;;;;;;;;5094626;28;20387;-61
2023/11/22 12:26:49;;;;;;;20.75;12.35;;;;;;;;;;5113145;28;20092;-61
2023/11/22 12:29:18;;;;;;;20.25;12.00;;;;;;;;;;5110991;28;20083;-60
2023/11/22 12:31:52;;;;;;;20.27;13.50;;;;;;;;;;5094160;28;20058;-61
2023/11/22 12:34:20;;;;;;;19.95;12.98;;;;;;;;;;5113096;28;20051;-61
2023/11/22 12:36:49;;;;;;;21.85;13.10;;;;;;;;;;5112470;28;20048;-61
2023/11/22 12:39:20;;;;;;;21.08;13.75;;;;;;;;;;5112392;28;20122;-61
2023/11/22 12:41:48;;;;;;;24.52;13.30;;;;;;;;;;5094744;28;20122;-60
2023/11/22 12:44:14;;;;;;;23.75;13.98;;;;;;;;;;5103820;28;20436;-61
2023/11/22 12:46:57;;;;;;;22.25;13.55;;;;;;;;;;5106371;28;20417;-61
2023/11/22 12:49:23;;;;;;;24.50;14.45;;;;;;;;;;5106350;28;20058;-61
2023/11/22 12:51:50;;;;;;;25.17;13.80;;;;;;;;;;5112509;28;20043;-61
2023/11/22 12:54:16;;;;;;;23.60;13.93;;;;;;;;;;5101169;28;20092;-61
2023/11/22 12:56:43;;;;;;;21.00;13.93;;;;;;;;;;5090714;28;20039;-61
2023/11/22 12:59:10;;;;;;;24.27;13.65;;;;;;;;;;5108219;28;20043;-60
2023/11/22 13:01:37;;;;;;;23.45;15.20;;;;;;;;;;5111763;28;20040;-61
2023/11/22 13:04:04;;;;;;;23.88;14.40;;;;;;;;;;5112748;28;20422;-61
2023/11/22 13:06:30;;;;;;;26.98;14.88;;;;;;;;;;5094181;28;20063;-61
2023/11/22 13:08:56;;;;;;;24.77;14.35;;;;;;;;;;5110964;28;20058;-61
2023/11/22 13:11:23;;;;;;;26.90;14.80;;;;;;;;;;5103413;28;20047;-61
2023/11/22 13:13:50;;;;;;;24.15;13.43;;;;;;;;;;5097191;28;20563;-61
2023/11/22 13:16:16;;;;;;;24.60;14.38;;;;;;;;;;5112422;28;20119;-61
2023/11/22 13:18:42;;;;;;;25.42;15.02;;;;;;;;;;5112172;28;20043;-61
2023/11/22 13:21:09;;;;;;;27.15;15.60;;;;;;;;;;5111479;28;20043;-61
2023/11/22 13:23:35;;;;;;;25.27;14.48;;;;;;;;;;5112248;28;20048;-61
2023/11/22 13:26:01;;;;;;;24.60;14.75;;;;;;;;;;5106666;28;20043;-60
2023/11/22 13:28:28;;;;;;;33.15;16.70;;;;;;;;;;5100045;28;20059;-61
2023/11/22 13:30:54;;;;;;;28.75;16.15;;;;;;;;;;5096251;28;20043;-61
2023/11/22 13:33:24;;;;;;;29.65;15.68;;;;;;;;;;5101216;28;20344;-60
2023/11/22 13:35:56;;;;;;;26.67;15.55;;;;;;;;;;5107507;28;20059;-61
2023/11/22 13:38:23;;;;;;;29.80;17.05;;;;;;;;;;5086182;28;20050;-61
2023/11/22 13:40:49;;;;;;;33.83;17.63;;;;;;;;;;5102741;28;20384;-61
2023/11/22 13:43:17;;;;;;;29.58;16.42;;;;;;;;;;5105479;27;20108;-61
2023/11/22 13:45:45;;;;;;;32.92;18.00;;;;;;;;;;5106654;28;20036;-61
2023/11/22 13:48:11;;;;;;;25.23;15.93;;;;;;;;;;5101293;28;20039;-61
2023/11/22 13:50:38;;;;;;;26.25;15.13;;;;;;;;;;5103906;28;20406;-61
2023/11/22 13:53:04;;;;;;;24.30;14.80;;;;;;;;;;5110535;28;20054;-61
2023/11/22 13:55:31;;;;;;;29.05;15.52;;;;;;;;;;5100486;28;20062;-61
2023/11/22 13:58:00;;;;;;;26.08;15.82;;;;;;;;;;5105946;28;20044;-61
2023/11/22 14:00:32;;;;;;;25.27;15.68;;;;;;;;;;5107092;28;20123;-61
2023/11/22 14:03:05;;;;;;;26.63;15.73;;;;;;;;;;5100030;28;20040;-61
2023/11/22 14:05:32;;;;;;;25.25;15.77;;;;;;;;;;5104716;28;20496;-61
2023/11/22 14:07:58;;;;;;;24.98;14.48;;;;;;;;;;5105597;28;20465;-61
2023/11/22 14:10:25;;;;;;;24.70;16.15;;;;;;;;;;5105061;28;20157;-61
2023/11/22 14:12:51;;;;;;;25.73;16.35;;;;;;;;;;5092037;28;20112;-61
2023/11/22 14:15:19;;;;;;;28.40;16.95;;;;;;;;;;5106734;28;20051;-63
2023/11/22 14:17:49;;;;;;;23.40;14.85;;;;;;;;;;5109354;28;20118;-61
2023/11/22 14:20:16;;;;;;;23.48;14.32;;;;;;;;;;5103671;28;20136;-61
2023/11/22 14:22:42;;;;;;;24.65;14.98;;;;;;;;;;5109298;28;20066;-61